sensor_id;sensor_type;location;lat;lon;timestamp;noise_LAeq;noise_LA_min;noise_LA_max;noise_LA01;noise_LA95
76261;Laerm;65076;52.362;6.588;2022-11-20T00:01:32;49.34;37.53;66.14;;
76261;Laerm;65076;52.362;6.588;2022-11-20T00:04:01;52.47;34.73;67.69;;
76261;Laerm;65076;52.362;6.588;2022-11-20T00:06:29;39.44;35.35;54.60;;
76261;Laerm;65076;52.362;6.588;2022-11-20T00:09:01;48.40;35.51;67.08;;
76261;Laerm;65076;52.362;6.588;2022-11-20T00:11:30;43.12;35.54;56.77;;
76261;Laerm;65076;52.362;6.588;2022-11-20T00:14:01;45.52;35.26;60.41;;
76261;Laerm;65076;52.362;6.588;2022-11-20T00:16:32;49.12;35.31;66.90;;
76261;Laerm;65076;52.362;6.588;2022-11-20T00:19:01;46.37;36.30;61.94;;
76261;Laerm;65076;52.362;6.588;2022-11-20T00:21:30;45.66;36.14;59.51;;
76261;Laerm;65076;52.362;6.588;2022-11-20T00:23:58;43.43;35.40;55.92;;
76261;Laerm;65076;52.362;6.588;2022-11-20T00:26:28;54.31;34.73;75.90;;
76261;Laerm;65076;52.362;6.588;2022-11-20T00:28:59;59.37;35.88;76.46;;
76261;Laerm;65076;52.362;6.588;2022-11-20T00:31:28;50.87;34.95;66.96;;
76261;Laerm;65076;52.362;6.588;2022-11-20T00:33:56;50.91;35.56;68.18;;
76261;Laerm;65076;52.362;6.588;2022-11-20T00:36:28;40.82;35.81;50.72;;
76261;Laerm;65076;52.362;6.588;2022-11-20T00:38:58;57.49;35.29;74.87;;
76261;Laerm;65076;52.362;6.588;2022-11-20T00:41:27;44.83;34.29;59.88;;
76261;Laerm;65076;52.362;6.588;2022-11-20T00:43:56;43.56;34.05;60.13;;
76261;Laerm;65076;52.362;6.588;2022-11-20T00:46:26;46.74;34.74;59.85;;
76261;Laerm;65076;52.362;6.588;2022-11-20T00:48:55;43.82;34.62;59.44;;
76261;Laerm;65076;52.362;6.588;2022-11-20T00:51:26;48.87;34.36;66.74;;
76261;Laerm;65076;52.362;6.588;2022-11-20T00:53:56;43.22;34.97;62.80;;
76261;Laerm;65076;52.362;6.588;2022-11-20T00:56:24;49.09;34.29;64.70;;
76261;Laerm;65076;52.362;6.588;2022-11-20T00:58:52;49.14;34.44;67.94;;
76261;Laerm;65076;52.362;6.588;2022-11-20T01:01:24;38.37;34.33;54.82;;
76261;Laerm;65076;52.362;6.588;2022-11-20T01:03:55;36.62;33.67;41.32;;
76261;Laerm;65076;52.362;6.588;2022-11-20T01:06:26;36.95;33.32;43.62;;
76261;Laerm;65076;52.362;6.588;2022-11-20T01:08:56;43.76;33.73;60.40;;
76261;Laerm;65076;52.362;6.588;2022-11-20T01:11:27;37.48;33.33;45.45;;
76261;Laerm;65076;52.362;6.588;2022-11-20T01:13:57;45.02;34.06;61.30;;
76261;Laerm;65076;52.362;6.588;2022-11-20T01:16:29;37.24;34.09;45.25;;
76261;Laerm;65076;52.362;6.588;2022-11-20T01:19:00;51.57;34.44;69.02;;
76261;Laerm;65076;52.362;6.588;2022-11-20T01:21:34;40.32;33.51;64.98;;
76261;Laerm;65076;52.362;6.588;2022-11-20T01:24:04;37.06;33.39;42.48;;
76261;Laerm;65076;52.362;6.588;2022-11-20T01:26:36;37.35;33.60;60.85;;
76261;Laerm;65076;52.362;6.588;2022-11-20T01:29:05;46.97;34.35;63.67;;
76261;Laerm;65076;52.362;6.588;2022-11-20T01:31:36;48.20;34.96;62.71;;
76261;Laerm;65076;52.362;6.588;2022-11-20T01:34:08;47.84;33.90;65.82;;
76261;Laerm;65076;52.362;6.588;2022-11-20T01:36:39;37.89;33.80;47.78;;
76261;Laerm;65076;52.362;6.588;2022-11-20T01:39:12;41.75;33.88;60.11;;
76261;Laerm;65076;52.362;6.588;2022-11-20T01:41:41;37.54;33.72;42.99;;
76261;Laerm;65076;52.362;6.588;2022-11-20T01:44:53;43.49;34.31;62.30;;
76261;Laerm;65076;52.362;6.588;2022-11-20T01:47:28;48.55;33.65;67.90;;
76261;Laerm;65076;52.362;6.588;2022-11-20T01:50:04;48.73;33.26;69.41;;
76261;Laerm;65076;52.362;6.588;2022-11-20T01:52:40;36.68;32.36;43.70;;
76261;Laerm;65076;52.362;6.588;2022-11-20T01:55:17;36.21;33.25;40.33;;
76261;Laerm;65076;52.362;6.588;2022-11-20T01:57:48;36.43;33.40;41.50;;
76261;Laerm;65076;52.362;6.588;2022-11-20T02:00:19;37.25;33.33;45.98;;
76261;Laerm;65076;52.362;6.588;2022-11-20T02:02:52;46.28;33.43;65.67;;
76261;Laerm;65076;52.362;6.588;2022-11-20T02:05:27;53.30;33.32;72.44;;
76261;Laerm;65076;52.362;6.588;2022-11-20T02:07:59;36.66;32.72;57.00;;
76261;Laerm;65076;52.362;6.588;2022-11-20T02:10:28;37.56;33.84;52.21;;
76261;Laerm;65076;52.362;6.588;2022-11-20T02:12:56;37.54;33.86;44.82;;
76261;Laerm;65076;52.362;6.588;2022-11-20T02:15:44;47.06;33.66;64.98;;
76261;Laerm;65076;52.362;6.588;2022-11-20T02:18:16;48.32;33.69;65.99;;
76261;Laerm;65076;52.362;6.588;2022-11-20T02:20:48;46.49;32.87;63.96;;
76261;Laerm;65076;52.362;6.588;2022-11-20T02:23:28;50.97;32.85;67.34;;
76261;Laerm;65076;52.362;6.588;2022-11-20T02:26:06;48.57;33.12;66.06;;
76261;Laerm;65076;52.362;6.588;2022-11-20T02:28:35;38.52;33.41;59.59;;
76261;Laerm;65076;52.362;6.588;2022-11-20T02:31:03;45.78;33.68;61.82;;
76261;Laerm;65076;52.362;6.588;2022-11-20T02:33:31;45.68;33.69;62.42;;
76261;Laerm;65076;52.362;6.588;2022-11-20T02:35:59;43.64;33.58;59.59;;
76261;Laerm;65076;52.362;6.588;2022-11-20T02:38:27;36.80;32.85;46.52;;
76261;Laerm;65076;52.362;6.588;2022-11-20T02:40:55;36.73;32.33;47.59;;
76261;Laerm;65076;52.362;6.588;2022-11-20T02:43:24;36.97;32.79;51.82;;
76261;Laerm;65076;52.362;6.588;2022-11-20T02:45:52;37.13;33.11;43.81;;
76261;Laerm;65076;52.362;6.588;2022-11-20T02:48:19;36.85;32.59;42.72;;
76261;Laerm;65076;52.362;6.588;2022-11-20T02:50:50;36.63;32.36;46.27;;
76261;Laerm;65076;52.362;6.588;2022-11-20T02:53:18;45.67;32.84;63.81;;
76261;Laerm;65076;52.362;6.588;2022-11-20T02:55:46;35.45;32.34;47.46;;
76261;Laerm;65076;52.362;6.588;2022-11-20T02:58:14;41.75;33.23;64.03;;
76261;Laerm;65076;52.362;6.588;2022-11-20T03:00:43;44.26;32.80;60.23;;
76261;Laerm;65076;52.362;6.588;2022-11-20T03:03:11;38.62;32.74;48.45;;
76261;Laerm;65076;52.362;6.588;2022-11-20T03:05:38;42.94;32.16;59.42;;
76261;Laerm;65076;52.362;6.588;2022-11-20T03:08:07;35.05;32.26;42.13;;
76261;Laerm;65076;52.362;6.588;2022-11-20T03:10:34;36.06;32.91;43.09;;
76261;Laerm;65076;52.362;6.588;2022-11-20T03:13:02;36.33;33.03;44.42;;
76261;Laerm;65076;52.362;6.588;2022-11-20T03:15:30;35.75;32.81;40.60;;
76261;Laerm;65076;52.362;6.588;2022-11-20T03:17:59;46.30;32.55;64.36;;
76261;Laerm;65076;52.362;6.588;2022-11-20T03:20:27;39.06;33.07;57.62;;
76261;Laerm;65076;52.362;6.588;2022-11-20T03:22:55;36.66;32.95;50.57;;
76261;Laerm;65076;52.362;6.588;2022-11-20T03:25:22;36.12;31.86;44.18;;
76261;Laerm;65076;52.362;6.588;2022-11-20T03:27:50;43.12;33.27;55.44;;
76261;Laerm;65076;52.362;6.588;2022-11-20T03:30:19;37.40;32.13;48.40;;
76261;Laerm;65076;52.362;6.588;2022-11-20T03:32:48;34.92;32.02;45.92;;
76261;Laerm;65076;52.362;6.588;2022-11-20T03:35:17;44.88;32.33;62.82;;
76261;Laerm;65076;52.362;6.588;2022-11-20T03:37:45;35.19;31.85;43.90;;
76261;Laerm;65076;52.362;6.588;2022-11-20T03:40:13;34.67;31.65;41.68;;
76261;Laerm;65076;52.362;6.588;2022-11-20T03:42:41;34.95;32.43;48.67;;
76261;Laerm;65076;52.362;6.588;2022-11-20T03:45:17;36.47;32.61;45.73;;
76261;Laerm;65076;52.362;6.588;2022-11-20T03:47:46;35.55;32.66;41.37;;
76261;Laerm;65076;52.362;6.588;2022-11-20T03:50:14;35.67;32.48;40.86;;
76261;Laerm;65076;52.362;6.588;2022-11-20T03:52:43;35.19;32.30;48.22;;
76261;Laerm;65076;52.362;6.588;2022-11-20T03:55:11;44.90;32.12;62.70;;
76261;Laerm;65076;52.362;6.588;2022-11-20T03:57:38;39.73;31.78;62.49;;
76261;Laerm;65076;52.362;6.588;2022-11-20T04:00:07;48.07;32.16;63.69;;
76261;Laerm;65076;52.362;6.588;2022-11-20T04:02:35;46.47;32.89;63.63;;
76261;Laerm;65076;52.362;6.588;2022-11-20T04:05:04;37.09;32.35;48.63;;
76261;Laerm;65076;52.362;6.588;2022-11-20T04:07:34;36.17;32.32;41.96;;
76261;Laerm;65076;52.362;6.588;2022-11-20T04:10:05;43.10;33.00;55.98;;
76261;Laerm;65076;52.362;6.588;2022-11-20T04:12:32;36.08;32.93;44.16;;
76261;Laerm;65076;52.362;6.588;2022-11-20T04:15:01;35.29;31.63;47.32;;
76261;Laerm;65076;52.362;6.588;2022-11-20T04:17:28;35.81;32.27;47.55;;
76261;Laerm;65076;52.362;6.588;2022-11-20T04:19:56;38.41;33.02;50.28;;
76261;Laerm;65076;52.362;6.588;2022-11-20T04:22:24;35.82;32.57;39.86;;
76261;Laerm;65076;52.362;6.588;2022-11-20T04:24:52;36.52;33.13;40.19;;
76261;Laerm;65076;52.362;6.588;2022-11-20T04:27:21;43.12;32.93;58.93;;
76261;Laerm;65076;52.362;6.588;2022-11-20T04:29:49;36.61;33.11;41.19;;
76261;Laerm;65076;52.362;6.588;2022-11-20T04:32:17;35.82;32.50;44.29;;
76261;Laerm;65076;52.362;6.588;2022-11-20T04:34:45;35.76;32.95;41.52;;
76261;Laerm;65076;52.362;6.588;2022-11-20T04:37:13;38.06;33.25;47.16;;
76261;Laerm;65076;52.362;6.588;2022-11-20T04:39:41;37.07;32.54;46.41;;
76261;Laerm;65076;52.362;6.588;2022-11-20T04:42:10;35.52;32.50;38.85;;
76261;Laerm;65076;52.362;6.588;2022-11-20T04:44:57;35.52;32.65;44.55;;
76261;Laerm;65076;52.362;6.588;2022-11-20T04:47:25;35.01;32.39;42.17;;
76261;Laerm;65076;52.362;6.588;2022-11-20T04:49:53;37.41;32.73;45.48;;
76261;Laerm;65076;52.362;6.588;2022-11-20T04:52:21;37.26;32.97;42.42;;
76261;Laerm;65076;52.362;6.588;2022-11-20T04:54:49;42.83;32.66;60.84;;
76261;Laerm;65076;52.362;6.588;2022-11-20T04:57:19;38.28;32.42;50.18;;
76261;Laerm;65076;52.362;6.588;2022-11-20T04:59:47;35.30;32.10;39.58;;
76261;Laerm;65076;52.362;6.588;2022-11-20T05:02:17;36.31;31.96;48.42;;
76261;Laerm;65076;52.362;6.588;2022-11-20T05:04:45;36.39;32.56;42.69;;
76261;Laerm;65076;52.362;6.588;2022-11-20T05:07:13;34.86;32.17;48.74;;
76261;Laerm;65076;52.362;6.588;2022-11-20T05:09:41;35.82;32.71;40.62;;
76261;Laerm;65076;52.362;6.588;2022-11-20T05:12:09;35.42;32.35;40.74;;
76261;Laerm;65076;52.362;6.588;2022-11-20T05:14:37;35.35;32.54;39.45;;
76261;Laerm;65076;52.362;6.588;2022-11-20T05:17:05;35.09;32.54;38.12;;
76261;Laerm;65076;52.362;6.588;2022-11-20T05:19:34;42.31;32.80;60.79;;
76261;Laerm;65076;52.362;6.588;2022-11-20T05:22:02;50.54;33.52;68.02;;
76261;Laerm;65076;52.362;6.588;2022-11-20T05:24:30;44.48;32.42;58.81;;
76261;Laerm;65076;52.362;6.588;2022-11-20T05:26:58;35.41;32.66;38.58;;
76261;Laerm;65076;52.362;6.588;2022-11-20T05:29:25;35.79;33.00;39.18;;
76261;Laerm;65076;52.362;6.588;2022-11-20T05:31:53;36.15;33.25;48.03;;
76261;Laerm;65076;52.362;6.588;2022-11-20T05:34:21;45.38;32.95;60.74;;
76261;Laerm;65076;52.362;6.588;2022-11-20T05:36:50;37.63;33.28;46.50;;
76261;Laerm;65076;52.362;6.588;2022-11-20T05:39:18;36.44;33.64;42.09;;
76261;Laerm;65076;52.362;6.588;2022-11-20T05:41:46;38.87;33.25;51.52;;
76261;Laerm;65076;52.362;6.588;2022-11-20T05:44:35;47.48;33.41;67.52;;
76261;Laerm;65076;52.362;6.588;2022-11-20T05:47:02;39.76;33.11;53.33;;
76261;Laerm;65076;52.362;6.588;2022-11-20T05:49:30;40.66;33.44;56.13;;
76261;Laerm;65076;52.362;6.588;2022-11-20T05:52:00;36.89;34.04;45.80;;
76261;Laerm;65076;52.362;6.588;2022-11-20T05:54:28;40.48;33.71;52.32;;
76261;Laerm;65076;52.362;6.588;2022-11-20T05:56:55;47.36;33.67;61.32;;
76261;Laerm;65076;52.362;6.588;2022-11-20T05:59:23;35.98;32.61;40.77;;
76261;Laerm;65076;52.362;6.588;2022-11-20T06:01:51;37.14;32.92;47.29;;
76261;Laerm;65076;52.362;6.588;2022-11-20T06:04:19;35.25;32.45;38.50;;
76261;Laerm;65076;52.362;6.588;2022-11-20T06:06:47;35.71;32.90;39.14;;
76261;Laerm;65076;52.362;6.588;2022-11-20T06:09:16;36.96;32.76;43.44;;
76261;Laerm;65076;52.362;6.588;2022-11-20T06:11:44;37.71;32.92;45.45;;
76261;Laerm;65076;52.362;6.588;2022-11-20T06:14:12;46.61;32.97;62.18;;
76261;Laerm;65076;52.362;6.588;2022-11-20T06:16:40;36.51;33.14;46.09;;
76261;Laerm;65076;52.362;6.588;2022-11-20T06:19:08;46.96;32.70;61.07;;
76261;Laerm;65076;52.362;6.588;2022-11-20T06:21:35;44.81;33.62;61.93;;
76261;Laerm;65076;52.362;6.588;2022-11-20T06:24:04;46.57;33.53;64.73;;
76261;Laerm;65076;52.362;6.588;2022-11-20T06:26:33;46.80;33.86;61.21;;
76261;Laerm;65076;52.362;6.588;2022-11-20T06:29:01;39.78;33.93;60.21;;
76261;Laerm;65076;52.362;6.588;2022-11-20T06:31:28;43.03;34.06;58.04;;
76261;Laerm;65076;52.362;6.588;2022-11-20T06:33:59;43.75;34.11;58.43;;
76261;Laerm;65076;52.362;6.588;2022-11-20T06:36:27;43.91;33.47;58.98;;
76261;Laerm;65076;52.362;6.588;2022-11-20T06:38:55;40.89;33.55;52.37;;
76261;Laerm;65076;52.362;6.588;2022-11-20T06:41:23;36.70;32.74;50.69;;
76261;Laerm;65076;52.362;6.588;2022-11-20T06:43:53;48.34;33.77;64.26;;
76261;Laerm;65076;52.362;6.588;2022-11-20T06:46:21;43.09;32.74;56.58;;
76261;Laerm;65076;52.362;6.588;2022-11-20T06:48:49;50.84;34.53;65.83;;
76261;Laerm;65076;52.362;6.588;2022-11-20T06:51:18;54.86;34.02;67.71;;
76261;Laerm;65076;52.362;6.588;2022-11-20T06:53:46;57.72;35.84;70.01;;
76261;Laerm;65076;52.362;6.588;2022-11-20T06:56:14;57.57;34.89;69.74;;
76261;Laerm;65076;52.362;6.588;2022-11-20T06:58:41;58.31;39.76;69.19;;
76261;Laerm;65076;52.362;6.588;2022-11-20T07:01:14;59.04;36.75;70.28;;
76261;Laerm;65076;52.362;6.588;2022-11-20T07:03:42;59.69;36.36;70.87;;
76261;Laerm;65076;52.362;6.588;2022-11-20T07:06:13;57.22;34.14;71.65;;
76261;Laerm;65076;52.362;6.588;2022-11-20T07:08:41;54.44;35.41;67.65;;
76261;Laerm;65076;52.362;6.588;2022-11-20T07:11:11;58.89;34.74;75.97;;
76261;Laerm;65076;52.362;6.588;2022-11-20T07:13:39;50.59;34.19;65.55;;
76261;Laerm;65076;52.362;6.588;2022-11-20T07:16:08;61.83;35.99;86.39;;
76261;Laerm;65076;52.362;6.588;2022-11-20T07:18:37;50.09;35.85;66.37;;
76261;Laerm;65076;52.362;6.588;2022-11-20T07:21:09;52.93;35.24;69.04;;
76261;Laerm;65076;52.362;6.588;2022-11-20T07:23:37;51.57;34.58;66.12;;
76261;Laerm;65076;52.362;6.588;2022-11-20T07:26:07;56.66;36.40;76.21;;
76261;Laerm;65076;52.362;6.588;2022-11-20T07:28:36;55.43;35.48;82.07;;
76261;Laerm;65076;52.362;6.588;2022-11-20T07:31:05;47.78;34.58;60.47;;
76261;Laerm;65076;52.362;6.588;2022-11-20T07:33:34;49.47;38.14;63.53;;
76261;Laerm;65076;52.362;6.588;2022-11-20T07:36:04;41.66;34.81;68.47;;
76261;Laerm;65076;52.362;6.588;2022-11-20T07:38:32;47.67;35.72;64.47;;
76261;Laerm;65076;52.362;6.588;2022-11-20T07:41:00;57.48;36.29;76.41;;
76261;Laerm;65076;52.362;6.588;2022-11-20T07:43:28;54.30;36.51;69.21;;
76261;Laerm;65076;52.362;6.588;2022-11-20T07:45:58;50.01;36.79;62.58;;
76261;Laerm;65076;52.362;6.588;2022-11-20T07:48:26;49.30;35.64;64.54;;
76261;Laerm;65076;52.362;6.588;2022-11-20T07:50:55;49.89;36.92;62.83;;
76261;Laerm;65076;52.362;6.588;2022-11-20T07:53:24;55.48;45.17;64.27;;
76261;Laerm;65076;52.362;6.588;2022-11-20T07:55:52;55.21;36.90;65.23;;
76261;Laerm;65076;52.362;6.588;2022-11-20T07:58:21;49.09;36.71;63.01;;
76261;Laerm;65076;52.362;6.588;2022-11-20T08:00:49;50.04;37.50;64.64;;
76261;Laerm;65076;52.362;6.588;2022-11-20T08:03:17;46.81;37.26;60.24;;
76261;Laerm;65076;52.362;6.588;2022-11-20T08:05:51;51.64;36.94;63.39;;
76261;Laerm;65076;52.362;6.588;2022-11-20T08:08:19;60.28;40.63;76.90;;
76261;Laerm;65076;52.362;6.588;2022-11-20T08:10:48;60.39;38.44;80.45;;
76261;Laerm;65076;52.362;6.588;2022-11-20T08:13:16;55.56;38.25;69.37;;
76261;Laerm;65076;52.362;6.588;2022-11-20T08:16:02;52.19;40.21;65.45;;
76261;Laerm;65076;52.362;6.588;2022-11-20T08:18:29;50.43;38.43;61.60;;
76261;Laerm;65076;52.362;6.588;2022-11-20T08:21:02;51.28;39.14;63.82;;
76261;Laerm;65076;52.362;6.588;2022-11-20T08:23:31;57.81;38.57;74.67;;
76261;Laerm;65076;52.362;6.588;2022-11-20T08:26:00;56.16;37.51;74.83;;
76261;Laerm;65076;52.362;6.588;2022-11-20T08:28:28;53.17;36.73;68.96;;
76261;Laerm;65076;52.362;6.588;2022-11-20T08:30:58;53.79;37.79;69.89;;
76261;Laerm;65076;52.362;6.588;2022-11-20T08:33:26;47.91;37.83;60.58;;
76261;Laerm;65076;52.362;6.588;2022-11-20T08:35:59;46.98;38.41;57.67;;
76261;Laerm;65076;52.362;6.588;2022-11-20T08:38:27;56.16;37.81;76.40;;
76261;Laerm;65076;52.362;6.588;2022-11-20T08:40:57;48.80;38.11;62.04;;
76261;Laerm;65076;52.362;6.588;2022-11-20T08:43:44;54.21;39.17;67.86;;
76261;Laerm;65076;52.362;6.588;2022-11-20T08:46:12;46.99;41.32;59.77;;
76261;Laerm;65076;52.362;6.588;2022-11-20T08:48:41;55.06;41.78;66.40;;
76261;Laerm;65076;52.362;6.588;2022-11-20T08:51:10;51.33;38.80;63.76;;
76261;Laerm;65076;52.362;6.588;2022-11-20T08:53:38;52.20;39.33;69.48;;
76261;Laerm;65076;52.362;6.588;2022-11-20T08:56:07;45.02;38.84;62.36;;
76261;Laerm;65076;52.362;6.588;2022-11-20T08:58:36;51.97;40.32;68.35;;
76261;Laerm;65076;52.362;6.588;2022-11-20T09:01:26;54.60;40.90;64.77;;
76261;Laerm;65076;52.362;6.588;2022-11-20T09:03:55;52.28;38.73;65.46;;
76261;Laerm;65076;52.362;6.588;2022-11-20T09:06:23;52.45;37.80;66.15;;
76261;Laerm;65076;52.362;6.588;2022-11-20T09:08:52;54.39;41.75;67.12;;
76261;Laerm;65076;52.362;6.588;2022-11-20T09:11:20;56.48;38.75;76.93;;
76261;Laerm;65076;52.362;6.588;2022-11-20T09:13:49;61.53;40.76;81.52;;
76261;Laerm;65076;52.362;6.588;2022-11-20T09:16:17;53.31;39.78;67.77;;
76261;Laerm;65076;52.362;6.588;2022-11-20T09:18:46;51.33;38.89;66.55;;
76261;Laerm;65076;52.362;6.588;2022-11-20T09:21:33;57.39;40.98;74.80;;
76261;Laerm;65076;52.362;6.588;2022-11-20T09:24:00;69.19;40.97;80.87;;
76261;Laerm;65076;52.362;6.588;2022-11-20T09:26:28;54.81;41.80;71.26;;
76261;Laerm;65076;52.362;6.588;2022-11-20T09:28:56;50.67;40.87;66.26;;
76261;Laerm;65076;52.362;6.588;2022-11-20T09:31:25;49.38;38.66;64.58;;
76261;Laerm;65076;52.362;6.588;2022-11-20T09:33:55;53.31;39.87;66.76;;
76261;Laerm;65076;52.362;6.588;2022-11-20T09:36:22;52.06;41.02;63.26;;
76261;Laerm;65076;52.362;6.588;2022-11-20T09:38:50;58.49;42.27;75.93;;
76261;Laerm;65076;52.362;6.588;2022-11-20T09:41:56;57.44;40.62;76.08;;
76261;Laerm;65076;52.362;6.588;2022-11-20T09:44:50;52.73;38.55;69.24;;
76261;Laerm;65076;52.362;6.588;2022-11-20T09:47:41;53.85;40.97;66.67;;
76261;Laerm;65076;52.362;6.588;2022-11-20T09:50:28;57.29;40.22;75.98;;
76261;Laerm;65076;52.362;6.588;2022-11-20T09:53:12;51.86;38.90;66.35;;
76261;Laerm;65076;52.362;6.588;2022-11-20T09:55:41;52.68;39.85;65.20;;
76261;Laerm;65076;52.362;6.588;2022-11-20T09:58:22;52.64;41.46;67.01;;
76261;Laerm;65076;52.362;6.588;2022-11-20T10:00:53;53.19;42.04;71.01;;
76261;Laerm;65076;52.362;6.588;2022-11-20T10:03:39;51.48;40.35;64.57;;
76261;Laerm;65076;52.362;6.588;2022-11-20T10:06:16;53.76;40.52;65.88;;
76261;Laerm;65076;52.362;6.588;2022-11-20T10:08:54;57.55;39.60;75.50;;
76261;Laerm;65076;52.362;6.588;2022-11-20T10:11:41;62.03;42.04;76.58;;
76261;Laerm;65076;52.362;6.588;2022-11-20T10:14:26;55.25;41.11;63.59;;
76261;Laerm;65076;52.362;6.588;2022-11-20T10:17:05;54.59;40.43;64.05;;
76261;Laerm;65076;52.362;6.588;2022-11-20T10:19:54;58.37;41.52;74.77;;
76261;Laerm;65076;52.362;6.588;2022-11-20T10:23:00;62.41;39.37;77.41;;
76261;Laerm;65076;52.362;6.588;2022-11-20T10:25:38;58.66;43.76;80.92;;
76261;Laerm;65076;52.362;6.588;2022-11-20T10:28:25;49.81;39.88;68.33;;
76261;Laerm;65076;52.362;6.588;2022-11-20T10:31:01;52.23;40.49;69.23;;
76261;Laerm;65076;52.362;6.588;2022-11-20T10:33:36;56.80;39.93;70.35;;
76261;Laerm;65076;52.362;6.588;2022-11-20T10:36:30;54.22;39.22;66.21;;
76261;Laerm;65076;52.362;6.588;2022-11-20T10:39:11;57.25;38.65;75.82;;
76261;Laerm;65076;52.362;6.588;2022-11-20T10:41:42;58.92;40.00;76.26;;
76261;Laerm;65076;52.362;6.588;2022-11-20T10:44:18;55.24;37.47;70.11;;
76261;Laerm;65076;52.362;6.588;2022-11-20T10:47:14;53.94;39.33;65.12;;
76261;Laerm;65076;52.362;6.588;2022-11-20T10:49:46;54.08;38.06;68.37;;
76261;Laerm;65076;52.362;6.588;2022-11-20T10:52:26;59.23;40.01;75.27;;
76261;Laerm;65076;52.362;6.588;2022-11-20T10:55:11;57.41;42.69;69.19;;
76261;Laerm;65076;52.362;6.588;2022-11-20T10:57:54;53.05;39.89;63.90;;
76261;Laerm;65076;52.362;6.588;2022-11-20T11:00:24;53.85;43.19;70.85;;
76261;Laerm;65076;52.362;6.588;2022-11-20T11:02:54;53.64;40.37;64.27;;
76261;Laerm;65076;52.362;6.588;2022-11-20T11:05:37;55.54;41.68;74.33;;
76261;Laerm;65076;52.362;6.588;2022-11-20T11:08:12;56.97;41.59;76.55;;
76261;Laerm;65076;52.362;6.588;2022-11-20T11:10:50;59.53;39.30;78.83;;
76261;Laerm;65076;52.362;6.588;2022-11-20T11:13:21;54.67;39.97;66.61;;
76261;Laerm;65076;52.362;6.588;2022-11-20T11:15:49;51.14;39.16;61.71;;
76261;Laerm;65076;52.362;6.588;2022-11-20T11:18:26;54.27;41.98;66.22;;
76261;Laerm;65076;52.362;6.588;2022-11-20T11:20:56;61.19;41.40;75.76;;
76261;Laerm;65076;52.362;6.588;2022-11-20T11:23:42;55.69;41.06;70.94;;
76261;Laerm;65076;52.362;6.588;2022-11-20T11:26:22;53.38;41.79;66.58;;
76261;Laerm;65076;52.362;6.588;2022-11-20T11:28:55;52.06;40.84;66.95;;
76261;Laerm;65076;52.362;6.588;2022-11-20T11:31:25;54.42;40.99;67.46;;
76261;Laerm;65076;52.362;6.588;2022-11-20T11:34:05;53.04;41.43;64.29;;
76261;Laerm;65076;52.362;6.588;2022-11-20T11:36:34;54.25;41.15;65.69;;
76261;Laerm;65076;52.362;6.588;2022-11-20T11:39:10;56.32;39.64;75.16;;
76261;Laerm;65076;52.362;6.588;2022-11-20T11:41:41;59.60;41.83;76.63;;
76261;Laerm;65076;52.362;6.588;2022-11-20T11:44:17;61.72;39.25;77.16;;
76261;Laerm;65076;52.362;6.588;2022-11-20T11:47:08;51.41;39.22;63.91;;
76261;Laerm;65076;52.362;6.588;2022-11-20T11:49:37;63.35;42.51;84.40;;
76261;Laerm;65076;52.362;6.588;2022-11-20T11:52:12;56.70;41.05;74.31;;
76261;Laerm;65076;52.362;6.588;2022-11-20T11:54:48;55.76;39.38;74.01;;
76261;Laerm;65076;52.362;6.588;2022-11-20T11:57:29;52.20;38.91;67.99;;
76261;Laerm;65076;52.362;6.588;2022-11-20T12:00:03;54.04;40.48;70.10;;
76261;Laerm;65076;52.362;6.588;2022-11-20T12:02:42;52.81;41.37;64.92;;
76261;Laerm;65076;52.362;6.588;2022-11-20T12:05:21;52.73;40.66;65.30;;
76261;Laerm;65076;52.362;6.588;2022-11-20T12:07:55;57.18;40.58;77.21;;
76261;Laerm;65076;52.362;6.588;2022-11-20T12:10:42;65.56;41.21;77.72;;
76261;Laerm;65076;52.362;6.588;2022-11-20T12:13:25;52.80;37.78;66.53;;
76261;Laerm;65076;52.362;6.588;2022-11-20T12:15:56;56.16;44.29;65.71;;
76261;Laerm;65076;52.362;6.588;2022-11-20T12:18:25;54.37;38.07;73.33;;
76261;Laerm;65076;52.362;6.588;2022-11-20T12:21:08;58.48;39.50;74.49;;
76261;Laerm;65076;52.362;6.588;2022-11-20T12:23:56;56.08;40.56;71.72;;
76261;Laerm;65076;52.362;6.588;2022-11-20T12:26:51;56.02;40.53;72.92;;
76261;Laerm;65076;52.362;6.588;2022-11-20T12:29:38;62.91;44.01;80.09;;
76261;Laerm;65076;52.362;6.588;2022-11-20T12:32:40;53.27;41.69;65.32;;
76261;Laerm;65076;52.362;6.588;2022-11-20T12:35:28;56.24;40.44;76.63;;
76261;Laerm;65076;52.362;6.588;2022-11-20T12:38:31;65.07;46.78;84.49;;
76261;Laerm;65076;52.362;6.588;2022-11-20T12:41:15;81.69;38.04;100.29;;
76261;Laerm;65076;52.362;6.588;2022-11-20T12:44:22;55.47;40.31;67.28;;
76261;Laerm;65076;52.362;6.588;2022-11-20T12:47:24;53.32;40.49;66.05;;
76261;Laerm;65076;52.362;6.588;2022-11-20T12:50:05;59.90;41.80;75.77;;
76261;Laerm;65076;52.362;6.588;2022-11-20T12:52:47;55.78;41.97;72.88;;
76261;Laerm;65076;52.362;6.588;2022-11-20T12:55:34;56.27;42.32;70.17;;
76261;Laerm;65076;52.362;6.588;2022-11-20T12:58:12;54.03;38.48;66.98;;
76261;Laerm;65076;52.362;6.588;2022-11-20T13:01:01;56.40;45.59;70.94;;
76261;Laerm;65076;52.362;6.588;2022-11-20T13:03:51;52.79;39.33;64.49;;
76261;Laerm;65076;52.362;6.588;2022-11-20T13:06:21;52.34;39.47;64.57;;
76261;Laerm;65076;52.362;6.588;2022-11-20T13:08:54;57.24;42.88;76.79;;
76261;Laerm;65076;52.362;6.588;2022-11-20T13:11:32;63.22;41.99;84.15;;
76261;Laerm;65076;52.362;6.588;2022-11-20T13:14:24;67.47;41.25;79.24;;
76261;Laerm;65076;52.362;6.588;2022-11-20T13:17:02;55.69;40.01;70.07;;
76261;Laerm;65076;52.362;6.588;2022-11-20T13:19:34;60.11;39.46;78.59;;
76261;Laerm;65076;52.362;6.588;2022-11-20T13:22:02;52.85;39.43;64.26;;
76261;Laerm;65076;52.362;6.588;2022-11-20T13:24:32;56.36;38.72;69.23;;
76261;Laerm;65076;52.362;6.588;2022-11-20T13:27:03;60.79;41.15;75.32;;
76261;Laerm;65076;52.362;6.588;2022-11-20T13:29:34;54.97;39.41;68.04;;
76261;Laerm;65076;52.362;6.588;2022-11-20T13:32:05;53.29;38.09;69.26;;
76261;Laerm;65076;52.362;6.588;2022-11-20T13:34:35;52.89;37.99;69.85;;
76261;Laerm;65076;52.362;6.588;2022-11-20T13:37:03;56.75;41.03;75.39;;
76261;Laerm;65076;52.362;6.588;2022-11-20T13:39:33;52.02;37.92;63.40;;
76261;Laerm;65076;52.362;6.588;2022-11-20T13:42:20;55.91;37.90;74.40;;
76261;Laerm;65076;52.362;6.588;2022-11-20T13:44:54;55.66;41.74;73.72;;
76261;Laerm;65076;52.362;6.588;2022-11-20T13:47:25;51.97;39.71;61.43;;
76261;Laerm;65076;52.362;6.588;2022-11-20T13:49:57;56.90;37.39;76.39;;
76261;Laerm;65076;52.362;6.588;2022-11-20T13:52:47;62.92;39.75;78.83;;
76261;Laerm;65076;52.362;6.588;2022-11-20T13:55:30;57.31;39.99;73.30;;
76261;Laerm;65076;52.362;6.588;2022-11-20T13:58:25;51.49;37.20;62.52;;
76261;Laerm;65076;52.362;6.588;2022-11-20T14:01:08;55.36;40.79;70.20;;
76261;Laerm;65076;52.362;6.588;2022-11-20T14:03:38;52.71;39.68;64.33;;
76261;Laerm;65076;52.362;6.588;2022-11-20T14:06:32;52.01;37.77;66.34;;
76261;Laerm;65076;52.362;6.588;2022-11-20T14:09:01;56.76;39.83;73.29;;
76261;Laerm;65076;52.362;6.588;2022-11-20T14:11:30;58.94;38.15;76.04;;
76261;Laerm;65076;52.362;6.588;2022-11-20T14:14:02;49.90;37.54;62.00;;
76261;Laerm;65076;52.362;6.588;2022-11-20T14:16:34;52.04;40.43;60.52;;